logo
Search for airport 
image banner adimage banner adimage banner ad
image banner ad

SCPG - Municipal De Panguipulli

Located in Panguipulli, Chile

ICAO - SCPG, IATA -

Data provided by Airmate  

General information

Coordinates: S39°39'16" W72°21'29"
Elevation is 940 feet MSL.
Magnetic variation is 6° East
View others Airports in Los Ríos

Operational data

Special qualification required
Current time UTC:
Current local time:
Weather at : SCVD - Pichoy ( 62 km )
METAR: SCVD 220300Z AUTO 03003KT 350V090 9999 -RA SCT025 BKN031 OVC037 08/07 Q1007
View NOTAMs / SUP AIP / TFR affecting this airport [VIEW]
Communications frequencies: [VIEW]

Runways:

RWY identifierQFULength (ft)Width (ft)SurfaceLDA (ft)
0227°213887GRAS
20207°213887GRAS

Airport contact information

Address: Panguipulli Chile

Other aviation service providers

Aviation club (not for profit)

Club Aéreo Panguipulli

Club Aéreo Panguipulli

Satellite view of SCPG